Search for airport 
image banner adimage banner adimage banner ad
image banner ad

CA72 - Community Memorial Hospital

Located in Ventura, United States

ICAO - CA72, IATA -

Data provided by Airmate  

General information

Coordinates: N34°16'29" W119°15'33"
Elevation is 175 feet MSL.
Magnetic variation is 14° East
View others Airports in California

Operational data

Special qualification required
Current time UTC:
Current local time:
Weather at : KOXR - Oxnard ( 9 km )
METAR: KOXR 292051Z 27015KT 10SM CLR 21/15 A2991 RMK AO2 SLP129 T02110150 58009 $
TAF: KOXR 291830Z 2919/3018 29013G19KT P6SM OVC006 FM292000 28014KT P6SM SCT005 FM300400 28006KT P6SM SKC FM300700 VRB03KT 3SM BR OVC005
View NOTAMs / SUP AIP / TFR affecting this airport [VIEW]
Communications frequencies: [VIEW]

Runways:

Airport contact information

Address: Ventura United States

Satellite view of CA72